WetterOnline ( http://www.wetteronline.de )

Wetter aktuell Frankenberg

Aktuelles Wetter: Schauenburg-Elgershausen (317m)

6-stündlich | Neueste Meldungen
Ortszeit Temperatur Wetter
So, 25.02. 13:00 -4.2° C wolkig
So, 25.02. 7:00 -8.5° C wolkenlos
So, 25.02. 1:00 -6.0° C leicht bewölkt
Sa, 24.02. 19:00 -2.9° C wolkenlos
Sa, 24.02. 13:00 -2.0° C bewölkt
Sa, 24.02. 7:00 -6.2° C wolkenlos
Sa, 24.02. 1:00 -5.4° C fast wolkenlos
Fr, 23.02. 19:00 -2.2° C wolkenlos
Ortszeit Temperatur Wetter
So, 25.02. 14:00 -3.9° C wolkig
So, 25.02. 13:40 -4.2° C wolkig
So, 25.02. 13:30 -4.1° C bedeckt
So, 25.02. 13:20 -4.1° C bedeckt
So, 25.02. 13:10 -3.9° C bewölkt
So, 25.02. 13:00 -4.2° C wolkig
So, 25.02. 12:50 -4.2° C leicht bewölkt
So, 25.02. 12:30 -4.6° C bewölkt
So, 25.02. 12:00 -5.0° C wolkig
So, 25.02. 11:30 -5.2° C wolkenlos
So, 25.02. 11:00 -5.4° C wolkenlos
Ortszeit Relative Feuchte Sichtweite
So, 25.02. 13:00 35% 19 km
So, 25.02. 7:00 70% 30 km
So, 25.02. 1:00 59% 45 km
Sa, 24.02. 19:00 50% 70 km
Sa, 24.02. 13:00 68% 27 km
Sa, 24.02. 7:00 58% 15 km
Sa, 24.02. 1:00 61% 14 km
Fr, 23.02. 19:00 41% 35 km
Ortszeit Relative Feuchte Sichtweite
So, 25.02. 14:00 36% 40 km
So, 25.02. 13:40 34% -
So, 25.02. 13:30 36% 35 km
So, 25.02. 13:20 36% -
So, 25.02. 13:10 35% -
So, 25.02. 13:00 35% 19 km
So, 25.02. 12:50 35% -
So, 25.02. 12:30 36% 25 km
So, 25.02. 12:00 38% 17 km
So, 25.02. 11:30 43% 22 km
So, 25.02. 11:00 46% 29 km
Ortszeit Niederschlagsmenge Niederschlagsart
So, 25.02. 13:00 0.0 l/m2 in 6 Std. -
So, 25.02. 7:00 0.0 l/m2 in 12 Std. -
So, 25.02. 1:00 0.0 l/m2 in 6 Std. -
Sa, 24.02. 19:00 0.1 l/m2 in 12 Std. Schnee
Sa, 24.02. 13:00 0.0 l/m2 in 6 Std. -
Sa, 24.02. 7:00 0.0 l/m2 in 12 Std. -
Sa, 24.02. 1:00 0.0 l/m2 in 6 Std. -
Fr, 23.02. 19:00 0.0 l/m2 in 12 Std. -
Ortszeit Niederschlagsmenge Niederschlagsart
So, 25.02. 14:00 0.0 l/m2 in 1 Std. -
So, 25.02. 13:40 keine Meldung -
So, 25.02. 13:30 0.0 l/m2 in 1 Std. -
So, 25.02. 13:20 keine Meldung -
So, 25.02. 13:10 keine Meldung -
So, 25.02. 13:00 0.0 l/m2 in 1 Std. -
So, 25.02. 12:50 keine Meldung -
So, 25.02. 12:30 0.0 l/m2 in 1 Std. -
So, 25.02. 12:00 0.0 l/m2 in 1 Std. -
So, 25.02. 11:30 0.0 l/m2 in 1 Std. -
So, 25.02. 11:00 0.0 l/m2 in 1 Std. -
Ortszeit Stärke Spitze Richtung
km/h Bft. km/h Grad Sektor
So, 25.02. 13:00 18 3 40 90° O
So, 25.02. 7:00 7 2 36 30° NO
So, 25.02. 1:00 14 3 36 100° O
Sa, 24.02. 19:00 7 2 37 70° O
Sa, 24.02. 13:00 14 3 50 90° O
Sa, 24.02. 7:00 11 2 29 70° O
Sa, 24.02. 1:00 13 3 30 80° O
Fr, 23.02. 19:00 11 2 43 80° O
Ortszeit Stärke Spitze Richtung
km/h Bft. km/h Grad Sektor
So, 25.02. 14:00 14 3 32 80° O
So, 25.02. 13:40 14 3 - 100° O
So, 25.02. 13:30 14 3 32 100° O
So, 25.02. 13:20 14 3 - 100° O
So, 25.02. 13:10 17 3 - 90° O
So, 25.02. 13:00 18 3 40 90° O
So, 25.02. 12:50 18 3 - 90° O
So, 25.02. 12:30 18 3 40 90° O
So, 25.02. 12:00 20 4 35 90° O
So, 25.02. 11:30 18 3 36 110° O
So, 25.02. 11:00 15 3 35 80° O
Ortszeit Untergrenze Bedeckung Gattung
total tief tief mittel hoch
So, 25.02. 13:00 3900 m 4/8 6/8 - - -
So, 25.02. 7:00 - 0/8 0/8 - - -
So, 25.02. 1:00 6000 m 2/8 2/8 - - -
Sa, 24.02. 19:00 - 0/8 0/8 - - -
Sa, 24.02. 13:00 720 m 7/8 7/8 - - -
Sa, 24.02. 7:00 - 0/8 0/8 - - -
Sa, 24.02. 1:00 9000 m 1/8 0/8 - - -
Fr, 23.02. 19:00 - 0/8 0/8 - - -
Ortszeit Bedeckungsgrad in Achtel und Wolkenuntergrenze
So, 25.02. 14:00 3(3300m) 5(3900m) 7(4200m)
So, 25.02. 13:40 5(3000m) 6(3900m) 6(4500m)
So, 25.02. 13:30 7(3000m) 8(4200m) 8(5100m)
So, 25.02. 13:20 7(3000m) 8(4200m) 8(5100m)
So, 25.02. 13:10 6(3300m) 7(4200m) 7(5100m)
So, 25.02. 13:00 3(3900m) 4(4200m) 6(5100m)
So, 25.02. 12:50 3(3900m) 4(4200m) 4(4800m)
So, 25.02. 12:30 6(3600m) 7(4500m)
So, 25.02. 12:00 4(3600m) 7(4500m)
So, 25.02. 11:30 2(4500m)
So, 25.02. 11:00 keine Wolken
Ortszeit Luftdruck NN (hPa) Tendenz (hPa in 3 Std.)
So, 25.02. 13:00 1031 - 1,0
So, 25.02. 7:00 1032 + 0,4
So, 25.02. 1:00 1031 + 1,0
Sa, 24.02. 19:00 1029 + 0,9
Sa, 24.02. 13:00 1028 - 0,1
Sa, 24.02. 7:00 1028 + 1,2
Sa, 24.02. 1:00 1026 + 0,5
Fr, 23.02. 19:00 1024 + 0,7
Ortszeit Luftdruck NN (hPa) Tendenz (hPa in 3 Std.)
So, 25.02. 14:00 1030 - 1,4
So, 25.02. 13:40 1030 keine Meldung
So, 25.02. 13:30 1030 - 1,1
So, 25.02. 13:20 1030 keine Meldung
So, 25.02. 13:10 1031 keine Meldung
So, 25.02. 13:00 1031 - 1,0
So, 25.02. 12:50 1031 keine Meldung
So, 25.02. 12:30 1031 - 0,3
So, 25.02. 12:00 1031 - 0,1
So, 25.02. 11:30 1031 - 0,2
So, 25.02. 11:00 1032 + 0,1
Ortszeit Schneehöhe (cm)
So, 25.02. 13:00 3
So, 25.02. 7:00 3
So, 25.02. 1:00 3
Sa, 24.02. 19:00 3
Sa, 24.02. 13:00 3
Sa, 24.02. 7:00 3
Sa, 24.02. 1:00 3
Fr, 23.02. 19:00 3
Ortszeit Schneehöhe (cm)
So, 25.02. 14:00 3
So, 25.02. 13:40 3
So, 25.02. 13:30 3
So, 25.02. 13:20 3
So, 25.02. 13:10 3
So, 25.02. 13:00 3
So, 25.02. 12:50 3
So, 25.02. 12:30 3
So, 25.02. 12:00 3
So, 25.02. 11:30 3
So, 25.02. 11:00 3
Link zu dieser Seite / Seite empfehlen

Das Wetter in ...